Terminal Aerodrome Forecast
Issued by NWS Brownsville, TX

Home | Current Version | Previous Version | Text Only | Print | Product List | Glossary On
Versions: 1 2 3 4 5 6 7 8 9 10 11 12 13 14 15 16 17 18 19 20 21
000
FTUS44 KBRO 221700
TAFBRO
TAF
KBRO 221731Z 2218/2318 20013G20KT P6SM FEW025 SCT250
     FM230400 16002KT 5SM BR BKN010
     FM230700 00000KT 2SM BR OVC005
     FM231400 20010KT P6SM OVC007
     FM231700 33020G25KT P6SM BKN020=

USA.gov is the U.S. government's official web portal to all federal, state and local government web resources and services.